M I D A S
Marine Information and Data Acquisition System
Tripno 1574 of the Zeeleeuw from 2008-09-25 04:02:56 to 2008-09-25 14:31:22
Back to CruiseResearch ActivitiesStationsMapUnderway DataData graphs

EquipmentUnitsComment
TimeDGPSUTC
LatitudeDGPSDM.mWGS84
LongitudeDGPSDM.mWGS84
HeadingGyrodeg 
SOGDGPSknotsSpeed over ground
COGDGPSdegCourse over ground
DepthEcho soundermeters200 kHz
Missing or incorrect values are displayed as -999
Navigation data collected by the RV Zeeleeuw from 2008-09-25 04:02:56 to 2008-09-25 14:31:22
Time Latitude Longitude Heading SOG COG Depth
2008-09-25 04:31:00 51°14.802 2°53.824 285.8 11.59 281 -999
2008-09-25 04:33:00 51°14.821 2°53.194 273.8 11.9 271 -999
2008-09-25 04:35:00 51°14.834 2°52.562 275.5 11.9 272 -999
2008-09-25 04:37:00 51°14.856 2°51.93 277.5 12.09 274 -999
2008-09-25 04:39:00 51°14.875 2°51.288 276.5 12.19 272 -999
2008-09-25 04:41:00 51°14.908 2°50.648 281.3 12.19 277 -999
2008-09-25 04:43:00 51°14.954 2°50.005 289.1 12 285 -999
2008-09-25 04:45:00 51°15.089 2°49.409 296.1 11.9 291 -999
2008-09-25 04:47:00 51°15.23 2°48.823 298 11.8 292 -999
2008-09-25 04:49:00 51°15.372 2°48.253 299.8 11.59 293 -999
2008-09-25 04:51:00 51°15.525 2°47.688 298.5 11.8 292 -999
2008-09-25 04:53:00 51°15.7 2°47.132 302.6 11.8 296 -999
2008-09-25 04:55:00 51°15.874 2°46.581 302.6 11.59 298 -999
2008-09-25 04:57:00 51°16.05 2°46.032 303.1 11.4 300 -999
2008-09-25 04:59:00 51°16.233 2°45.517 306.1 11.19 298 -999
2008-09-25 05:01:00 51°16.413 2°44.997 305 11.09 299 -999
2008-09-25 05:03:00 51°16.589 2°44.467 305.1 11.19 298 -999
2008-09-25 05:05:00 51°16.765 2°43.94 305.3 11.59 298 -999
2008-09-25 05:07:00 51°16.957 2°43.407 308.3 11.5 301 -999
2008-09-25 05:09:00 51°17.153 2°42.894 308.1 11.5 303 -999
2008-09-25 05:11:00 51°17.363 2°42.382 309.1 11.59 303 -999
2008-09-25 05:13:00 51°17.563 2°41.857 307.6 11.69 300 -999
2008-09-25 05:15:00 51°17.777 2°41.345 317.1 11.59 308 -999
2008-09-25 05:17:00 51°18.019 2°40.871 316.6 11.5 308 -999
2008-09-25 05:19:00 51°18.274 2°40.428 322.8 11.19 316 -999
2008-09-25 05:21:00 51°18.526 2°39.982 316.8 11.4 311 -999
2008-09-25 05:23:00 51°18.774 2°39.525 318.6 11.19 313 -999
2008-09-25 05:25:00 51°19.022 2°39.067 316.6 11.5 311 -999
2008-09-25 05:27:00 51°19.271 2°38.601 317.5 11.69 309 -999
2008-09-25 05:29:00 51°19.518 2°38.13 316.6 11.5 309 -999
2008-09-25 05:31:00 51°19.767 2°37.657 316.6 11.69 309 -999
2008-09-25 05:33:00 51°20.001 2°37.214 319.5 7.09 309 -999
2008-09-25 05:35:00 51°20.062 2°37.046 330.3 2.29 286 -999
2008-09-25 05:37:00 51°20.083 2°36.945 351.3 1.6 276 -999
2008-09-25 05:39:00 51°20.089 2°36.862 353.3 1.5 278 -999
2008-09-25 05:41:00 51°20.083 2°36.782 353.3 1.6 269 -999
2008-09-25 05:43:00 51°20.101 2°36.817 93.7 2.5 105 -999
2008-09-25 05:45:00 51°20.116 2°36.937 102 2.2 134 -999
2008-09-25 05:47:00 51°20.08 2°36.906 176.3 1.3 264 -999
2008-09-25 05:49:00 51°20.064 2°36.836 193.6 1.5 242 -999
2008-09-25 05:51:00 51°20.034 2°36.761 190.5 1.8 236 -999
2008-09-25 05:53:00 51°19.973 2°36.737 112.4 2 139 -999
2008-09-25 05:55:00 51°19.994 2°36.861 60.7 3.39 64 -999
2008-09-25 05:57:00 51°20.045 2°37.037 60.6 3.7 63 -999
2008-09-25 05:59:00 51°20.09 2°37.089 19.6 1 327 -999
2008-09-25 06:01:00 51°20.098 2°37.032 358.5 1.5 256 -999
2008-09-25 06:03:00 51°20.092 2°36.963 356.3 1.3 264 -999
2008-09-25 06:05:00 51°20.09 2°36.895 353.3 1.3 267 -999
2008-09-25 06:07:00 51°20.078 2°36.827 351.1 1.3 242 -999
2008-09-25 06:09:00 51°20.133 2°36.857 39.8 5.59 40 -999
2008-09-25 06:11:00 51°20.136 2°36.958 122.5 1.39 179 -999
2008-09-25 06:13:00 51°20.103 2°36.915 162.3 1.5 230 -999
2008-09-25 06:15:00 51°20.067 2°36.862 161.6 1.39 217 -999
2008-09-25 06:17:00 51°20.03 2°36.819 142.4 1.3 217 -999
2008-09-25 06:19:00 51°19.995 2°36.778 137.8 1.3 219 -999
2008-09-25 06:21:00 51°19.963 2°36.736 132 1.3 220 -999
2008-09-25 06:23:00 51°19.932 2°36.695 129 1.1 218 -999
2008-09-25 06:25:00 51°19.901 2°36.655 125.2 1.3 217 -999
2008-09-25 06:27:00 51°19.868 2°36.617 128.4 1.19 215 -999
2008-09-25 06:29:00 51°19.836 2°36.581 133.9 1 213 -999
2008-09-25 06:31:00 51°19.804 2°36.546 132.8 1.1 213 -999
2008-09-25 06:33:00 51°19.773 2°36.512 127.9 1 212 -999
2008-09-25 06:35:00 51°19.742 2°36.48 127.5 1.1 213 -999
2008-09-25 06:37:00 51°19.713 2°36.45 120.7 0.9 214 -999
2008-09-25 06:39:00 51°19.686 2°36.419 118.9 1 215 -999
2008-09-25 06:41:00 51°19.658 2°36.386 123.9 1 218 -999
2008-09-25 06:43:00 51°19.631 2°36.354 132 1.1 219 -999
2008-09-25 06:45:00 51°19.603 2°36.323 135.5 1 212 -999
2008-09-25 06:47:00 51°19.575 2°36.297 133.8 0.9 209 -999
2008-09-25 06:49:00 51°19.547 2°36.288 114.4 1.5 132 -999
2008-09-25 06:51:00 51°19.6 2°36.378 33.3 3.7 32 -999
2008-09-25 06:53:00 51°19.694 2°36.491 34.7 3.6 34 -999
2008-09-25 06:55:00 51°19.789 2°36.597 35.3 3.5 33 -999
2008-09-25 06:57:00 51°19.882 2°36.691 32.2 2.39 31 -999
2008-09-25 06:59:00 51°19.921 2°36.743 62.7 0.9 81 -999
2008-09-25 07:01:00 51°19.902 2°36.806 107 2.1 125 -999
2008-09-25 07:03:00 51°19.864 2°36.917 102 2 119 -999
2008-09-25 07:05:00 51°19.839 2°36.977 100.5 1 136 -999
2008-09-25 07:07:00 51°19.818 2°36.994 102.2 0.59 166 -999
2008-09-25 07:09:00 51°19.799 2°36.995 107.2 0.59 185 -999
2008-09-25 07:11:00 51°19.81 2°37.085 38.6 5.2 28 -999
2008-09-25 07:13:00 51°20.088 2°37.211 20.8 10 23 -999
2008-09-25 07:15:00 51°20.41 2°37.464 27 10.9 27 -999
2008-09-25 07:17:00 51°20.717 2°37.775 33.2 11.09 33 -999
2008-09-25 07:19:00 51°20.969 2°38.055 36 7.79 36 -999
2008-09-25 07:21:00 51°21.128 2°38.245 35.8 5 37 -999
2008-09-25 07:23:00 51°21.197 2°38.331 27.5 0.29 45 -999
2008-09-25 07:25:00 51°21.197 2°38.325 350.1 0.4 229 -999
2008-09-25 07:27:00 51°21.187 2°38.308 316.8 0.4 224 -999
2008-09-25 07:29:00 51°21.215 2°38.274 0.2 2.7 5 -999
2008-09-25 07:31:00 51°21.247 2°38.337 83 0.9 110 -999
2008-09-25 07:33:00 51°21.23 2°38.36 105.5 0.5 179 -999
2008-09-25 07:35:00 51°21.218 2°38.345 133.3 0.29 220 -999
2008-09-25 07:37:00 51°21.202 2°38.335 142 0.5 183 -999
2008-09-25 07:39:00 51°21.195 2°38.318 145.5 0.4 269 -999
2008-09-25 07:41:00 51°21.123 2°38.453 125 8.59 125 -999
2008-09-25 07:43:00 51°20.896 2°38.873 130.9 11.3 130 -999
2008-09-25 07:45:00 51°20.648 2°39.328 130.8 11.3 133 -999
2008-09-25 07:47:00 51°20.411 2°39.779 129.9 11.3 132 -999
2008-09-25 07:49:00 51°20.171 2°40.241 129.9 11.19 128 -999
2008-09-25 07:51:00 51°19.937 2°40.704 129.5 11.3 130 -999
2008-09-25 07:53:00 51°19.702 2°41.178 129.8 11.5 127 -999
2008-09-25 07:55:00 51°19.446 2°41.634 134.4 11.9 132 -999
2008-09-25 07:57:00 51°19.183 2°42.091 134 11.59 133 -999
2008-09-25 07:59:00 51°18.919 2°42.549 134.1 11.8 130 -999
2008-09-25 08:01:00 51°18.662 2°43.008 131.6 11.3 136 -999
2008-09-25 08:03:00 51°18.411 2°43.457 137.9 11.5 136 -999
2008-09-25 08:05:00 51°18.108 2°43.835 146.1 11.69 141 -999
2008-09-25 08:07:00 51°17.801 2°44.206 145.8 11.5 142 -999
2008-09-25 08:09:00 51°17.493 2°44.573 147 11.8 140 -999
2008-09-25 08:11:00 51°17.184 2°44.936 143.4 11.5 144 -999
2008-09-25 08:13:00 51°16.875 2°45.3 144.8 11.5 146 -999
2008-09-25 08:15:00 51°16.569 2°45.666 144.5 11.4 147 -999
2008-09-25 08:17:00 51°16.266 2°46.039 139.4 11.3 137 -999
2008-09-25 08:19:00 51°16.075 2°46.575 114.5 12 108 -999
2008-09-25 08:21:00 51°15.926 2°47.16 114.9 12.09 111 -999
2008-09-25 08:23:00 51°15.774 2°47.751 116.2 12 113 -999
2008-09-25 08:25:00 51°15.626 2°48.316 115.2 8.69 114 -999
2008-09-25 08:27:00 51°15.59 2°48.578 96.2 3.1 89 -999
2008-09-25 08:29:00 51°15.56 2°48.82 107.5 8.9 107 -999
2008-09-25 08:31:00 51°15.468 2°49.394 105.7 11.9 101 -999
2008-09-25 08:33:00 51°15.388 2°50.013 105 11.9 102 -999
2008-09-25 08:35:00 51°15.353 2°50.642 93.2 12 92 -999
2008-09-25 08:37:00 51°15.319 2°51.274 99.5 11.9 99 -999
2008-09-25 08:39:00 51°15.227 2°51.878 118.2 11 113 -999
2008-09-25 08:41:00 51°15.103 2°52.262 120.7 7.2 114 -999
2008-09-25 08:43:00 51°15.014 2°52.569 115.7 4.4 110 -999
2008-09-25 08:45:00 51°14.992 2°52.716 109.5 2 97 -999
2008-09-25 08:47:00 51°14.987 2°52.799 104.4 1.19 94 -999
2008-09-25 08:49:00 51°14.985 2°52.854 107.2 0.9 93 -999
2008-09-25 08:51:00 51°14.983 2°52.892 118.5 0.59 99 -999
2008-09-25 08:53:00 51°14.981 2°52.923 129 0.59 94 -999
2008-09-25 08:55:00 51°14.98 2°52.953 130.4 0.59 87 -999
2008-09-25 08:57:00 51°14.979 2°52.983 133.4 0.5 90 -999
2008-09-25 08:59:00 51°14.973 2°53.068 93.2 5.09 80 -999
2008-09-25 09:01:00 51°15.095 2°52.974 288 8.59 290 -999
2008-09-25 09:03:00 51°15.19 2°52.439 280.8 10.9 284 -999
2008-09-25 09:05:00 51°15.255 2°51.866 281.1 11 286 -999
2008-09-25 09:07:00 51°15.336 2°51.31 280.8 10.8 284 -999
2008-09-25 09:09:00 51°15.423 2°50.758 281.8 10.8 285 -999
2008-09-25 09:11:00 51°15.515 2°50.206 282.1 10.8 287 -999
2008-09-25 09:13:00 51°15.604 2°49.655 281.6 10.59 284 -999
2008-09-25 09:15:00 51°15.694 2°49.106 280.8 10.69 284 -999
2008-09-25 09:17:00 51°15.783 2°48.547 281.6 10.8 285 -999
2008-09-25 09:19:00 51°15.87 2°47.997 281.8 10.8 285 -999
2008-09-25 09:21:00 51°15.959 2°47.445 280.3 10.8 283 -999
2008-09-25 09:23:00 51°16.053 2°46.894 285.3 10.8 287 -999
2008-09-25 09:25:00 51°16.173 2°46.35 286.3 10.8 288 -999
2008-09-25 09:27:00 51°16.324 2°45.831 297.3 11 301 -999
2008-09-25 09:29:00 51°16.572 2°45.384 312.8 11.4 316 -999
2008-09-25 09:31:00 51°16.85 2°44.963 313.3 11.3 318 -999
2008-09-25 09:33:00 51°17.145 2°44.578 318 11.4 321 -999
2008-09-25 09:35:00 51°17.446 2°44.206 318.8 11.3 322 -999
2008-09-25 09:37:00 51°17.76 2°43.867 323.3 11.19 327 -999
2008-09-25 09:39:00 51°18.054 2°43.528 301.1 10.5 301 -999
2008-09-25 09:41:00 51°18.234 2°43.025 298.1 11.09 303 -999
2008-09-25 09:43:00 51°18.435 2°42.522 294.8 11.3 301 -999
2008-09-25 09:45:00 51°18.598 2°41.988 292.3 11.19 295 -999
2008-09-25 09:47:00 51°18.772 2°41.471 294.1 10.9 299 -999
2008-09-25 09:49:00 51°18.947 2°40.971 294.8 10.8 298 -999
2008-09-25 09:51:00 51°19.115 2°40.463 292.6 10.8 302 -999
2008-09-25 09:53:00 51°19.289 2°39.945 292.3 11.09 294 -999
2008-09-25 09:55:00 51°19.431 2°39.398 286.6 11 292 -999
2008-09-25 09:57:00 51°19.561 2°38.845 286.1 11 291 -999
2008-09-25 09:59:00 51°19.697 2°38.308 289.8 10.8 294 -999
2008-09-25 10:01:00 51°19.846 2°37.787 288.8 10.8 294 -999
2008-09-25 10:03:00 51°19.968 2°37.394 290.3 6.29 299 -999
2008-09-25 10:05:00 51°19.998 2°37.204 218 1.5 199 -999
2008-09-25 10:07:00 51°20.01 2°37.228 176.3 0.8 47 -999
2008-09-25 10:09:00 51°20.023 2°37.258 151.4 0.59 57 -999
2008-09-25 10:11:00 51°20.031 2°37.292 141.5 0.69 71 -999
2008-09-25 10:13:00 51°20.029 2°37.35 119.2 3.79 102 -999
2008-09-25 10:15:00 51°19.938 2°37.835 116.5 11.8 112 -999
2008-09-25 10:17:00 51°19.777 2°38.415 116.5 12 115 -999
2008-09-25 10:19:00 51°19.615 2°38.99 117.5 11.9 112 -999
2008-09-25 10:21:00 51°19.457 2°39.559 115.2 11.5 115 -999
2008-09-25 10:23:00 51°19.305 2°40.125 115.7 11.69 112 -999
2008-09-25 10:25:00 51°19.16 2°40.703 115.2 11.9 112 -999
2008-09-25 10:27:00 51°19.005 2°41.285 116.9 11.9 117 -999
2008-09-25 10:29:00 51°18.837 2°41.855 117.5 11.8 118 -999
2008-09-25 10:31:00 51°18.665 2°42.423 117.5 11.8 121 -999
2008-09-25 10:33:00 51°18.546 2°42.795 120 4.9 111 -999
2008-09-25 10:35:00 51°18.489 2°42.926 158.6 2 142 -999
2008-09-25 10:37:00 51°18.461 2°42.979 139 1 111 -999
2008-09-25 10:39:00 51°18.456 2°43.02 127.5 0.69 77 -999
2008-09-25 10:41:00 51°18.458 2°43.05 123.9 0.5 76 -999
2008-09-25 10:43:00 51°18.462 2°43.073 126.2 0.59 79 -999
2008-09-25 10:45:00 51°18.463 2°43.112 114 0.8 82 -999
2008-09-25 10:47:00 51°18.464 2°43.169 99 1.3 94 -999
2008-09-25 10:49:00 51°18.468 2°43.223 113.4 1 83 -999
2008-09-25 10:51:00 51°18.47 2°43.275 114.2 0.8 87 -999
2008-09-25 10:53:00 51°18.474 2°43.31 123.7 0.4 59 -999
2008-09-25 10:55:00 51°18.482 2°43.329 140.4 0.4 56 -999
2008-09-25 10:57:00 51°18.488 2°43.347 141.5 0.29 76 -999
2008-09-25 10:59:00 51°18.494 2°43.368 139 0.4 65 -999
2008-09-25 11:01:00 51°18.499 2°43.389 140 0.4 55 -999
2008-09-25 11:03:00 51°18.485 2°43.43 163.5 2.1 156 -999
2008-09-25 11:05:00 51°18.428 2°43.336 241.8 2.7 254 -999
2008-09-25 11:07:00 51°18.447 2°43.267 305.5 0.59 357 -999
2008-09-25 11:09:00 51°18.461 2°43.278 315.3 0.29 66 -999
2008-09-25 11:11:00 51°18.468 2°43.295 300.1 0.5 55 -999
2008-09-25 11:13:00 51°18.477 2°43.308 299.3 0.4 51 -999
2008-09-25 11:15:00 51°18.486 2°43.321 304.6 0.4 21 -999
2008-09-25 11:17:00 51°18.497 2°43.328 315.5 0.5 21 -999
2008-09-25 11:19:00 51°18.509 2°43.334 314.6 0.29 21 -999
2008-09-25 11:21:00 51°18.517 2°43.342 309.5 0.4   -999
2008-09-25 11:23:00 51°18.515 2°43.268 210.8 1.6 207 -999
2008-09-25 11:25:00 51°18.495 2°43.268 165.8 0.2 117 -999
2008-09-25 11:27:00 51°18.49 2°43.289 147.5 0.5 97 -999
2008-09-25 11:29:00 51°18.482 2°43.316 150.6 0.59 117 -999
2008-09-25 11:31:00 51°18.48 2°43.341 141.4 0.4 61 -999
2008-09-25 11:33:00 51°18.486 2°43.354 137.9 0.29 39 -999
2008-09-25 11:35:00 51°18.493 2°43.358 148 0.29 19 -999
2008-09-25 11:37:00 51°18.502 2°43.359 153.8 0.4 4 -999
2008-09-25 11:39:00 51°18.51 2°43.363 149 0.4 133 -999
2008-09-25 11:41:00 51°18.468 2°43.364 218.3 2 230 -999
2008-09-25 11:43:00 51°18.468 2°43.319 281 0.5 4 -999
2008-09-25 11:45:00 51°18.474 2°43.338 294 0.29 57 -999
2008-09-25 11:47:00 51°18.481 2°43.344 295.6 0.2 40 -999
2008-09-25 11:49:00 51°18.487 2°43.354 293 0.29 19 -999
2008-09-25 11:51:00 51°18.501 2°43.333 293.8 3.1 299 -999
2008-09-25 11:53:00 51°18.607 2°42.969 292.3 10.5 296 -999
2008-09-25 11:55:00 51°18.741 2°42.404 285.8 11.59 288 -999
2008-09-25 11:57:00 51°18.861 2°41.829 286.3 11.3 287 -999
2008-09-25 11:59:00 51°18.984 2°41.259 286.3 11.4 289 -999
2008-09-25 13:01:00 51°20.007 2°37.039 142.3 0.29 225 -999
2008-09-25 13:03:00 51°20.001 2°37.021 142 0.4 253 -999
2008-09-25 13:05:00 51°19.995 2°37.003 145.4 0.4 247 -999
2008-09-25 13:07:00 51°19.981 2°36.992 147 0.8 169 -999
2008-09-25 13:09:00 51°19.96 2°36.998 137.4 0.4 161 -999
2008-09-25 13:11:00 51°19.947 2°36.99 138.8 0.29 212 -999
2008-09-25 13:13:00 51°19.929 2°36.989 136 1.19 146 -999
2008-09-25 13:15:00 51°19.83 2°37.17 129.8 7.2 131 -999
2008-09-25 13:17:00 51°19.65 2°37.541 124 10.09 124 -999
2008-09-25 13:19:00 51°19.436 2°38.011 123.2 10.8 124 -999
2008-09-25 13:21:00 51°19.222 2°38.49 123.5 11.09 126 -999
2008-09-25 13:23:00 51°19.02 2°38.986 120.9 11.09 118 -999
2008-09-25 13:25:00 51°18.827 2°39.494 120.4 11.09 120 -999
2008-09-25 13:27:00 51°18.632 2°40.002 122.2 11.09 121 -999
2008-09-25 13:29:00 51°18.431 2°40.498 121.7 11 125 -999
2008-09-25 13:31:00 51°18.229 2°40.99 122.2 11.09 122 -999
2008-09-25 13:33:00 51°18.03 2°41.48 121.4 11 123 -999
2008-09-25 13:35:00 51°17.826 2°41.972 120.7 11.3 126 -999
2008-09-25 13:37:00 51°17.62 2°42.465 122.2 11.09 126 -999
2008-09-25 13:39:00 51°17.413 2°42.942 119.7 10.59 129 -999
2008-09-25 13:41:00 51°17.214 2°43.413 121 10.9 125 -999
2008-09-25 13:43:00 51°17.007 2°43.892 121.2 11 126 -999
2008-09-25 13:45:00 51°16.8 2°44.374 122.9 11.09 122 -999
2008-09-25 13:47:00 51°16.59 2°44.856 120.5 11.09 124 -999
2008-09-25 13:49:00 51°16.383 2°45.336 120.7 10.9 122 -999
2008-09-25 13:51:00 51°16.216 2°45.842 110.5 10.69 116 -999
2008-09-25 13:53:00 51°16.067 2°46.37 110.7 10.8 116 -999
2008-09-25 13:55:00 51°15.919 2°46.899 109.5 11 112 -999
2008-09-25 13:57:00 51°15.737 2°47.405 115.4 11 124 -999
2008-09-25 13:59:00 51°15.552 2°47.899 114.7 10.8 124 -999
2008-09-25 14:01:00 51°15.392 2°48.406 107.2 10.59 111 -999
2008-09-25 14:03:00 51°15.304 2°48.957 99.7 10.69 104 -999
2008-09-25 14:05:00 51°15.236 2°49.515 96.9 10.8 100 -999
2008-09-25 14:07:00 51°15.167 2°50.073 97.2 10.59 101 -999
2008-09-25 14:09:00 51°15.097 2°50.632 97.7 10.69 98 -999
2008-09-25 14:11:00 51°15.022 2°51.178 100.9 9.9 103 -999
2008-09-25 14:13:00 51°14.939 2°51.673 100.4 9.5 104 -999
2008-09-25 14:15:00 51°14.866 2°52.066 99.7 7.59 107 -999
2008-09-25 14:17:00 51°14.793 2°52.452 100.5 7.59 108 -999
2008-09-25 14:19:00 51°14.718 2°52.831 100.7 7.7 113 -999
2008-09-25 14:21:00 51°14.651 2°53.097 101.7 4.4 113 -999
2008-09-25 14:23:00 51°14.6 2°53.328 98.2 6.79 105 -999
2008-09-25 14:25:00 51°14.527 2°53.744 99.2 8.59 108 -999
2008-09-25 14:27:00 51°14.453 2°54.228 96 10.3 97 -999
2008-09-25 14:29:00 51°14.394 2°54.772 97.2 10.69 101 -999
2008-09-25 14:31:00 51°14.241 2°55.284 128.3 10.9 131 -999